Airfield :







YOU CAN JOIN US ON...

 
LOGIN :

Register | Disclaimer

   EN    FR    IT 

 









Legend :    VFR   Marginal VFR   IFR   Intensive IFR   Very Intensive IFR
Visi :
Ceiling :
>= 8 km
>= 3000ft
5 to 8 km
1000 to 3000 ft
1500m to 5 km
500 to 1000 ft
800 to 1500m
200 to 500 ft
< 800m
< 200 ft
Symbols :   Thunderstorms  Fog  Heavy snow  Heavy precipitations  Wind > 20 kt






- Airport Elevation : 166 ft
- IATA code : YCX


CYCX - Gagetown Heliport

CURRENT METAR :
  • 170500Z AUTO 09005KT 9SM CLR 07/03 A2985 RMK SLP111

EXPIRED METARs :
  • 170400Z AUTO 10003KT 9SM CLR 07/02 A2989 RMK SLP122
  • 170300Z AUTO 09004KT 9SM CLR 06/02 A2989 RMK SLP124

TAF TAF CYCX
Valid from the 17 at 00:00 until the 17 at 12:00 UTC


162330Z 1700/1712 15005KT P6SM BKN230
BECMG 1707/1709 09010KT P6SM VCSH BKN050 OVC100
FM170900 07015G25KT 4SM -RA BR OVC030 RMK NXT FCST BY 170600Z



MET'MAP, your aeronautical weather chart ! - Copyright ORBIFLY December 2007 - Disclaimer

ORBIFLY MET'MAP TEAM :

Programming & Development : Alexandra Zaïnal
Concept & Development : Baudouin d'Aumeries
Co-Development & Prog : Marc-Olivier Méhu
Technical & hardware support : Manuel Goepfert

Contact : metmap@orbifly.com




SOURCES & CREDITS :

   NOAA